sensor_id;sensor_type;location;lat;lon;timestamp;P1;durP1;ratioP1;P2;durP2;ratioP2
23123;SDS011;11731;48.592;8.858;2022-09-09T00:00:18;2.47;;;1.57;;
23123;SDS011;11731;48.592;8.858;2022-09-09T00:02:48;2.30;;;1.77;;
23123;SDS011;11731;48.592;8.858;2022-09-09T00:05:23;3.87;;;1.73;;
23123;SDS011;11731;48.592;8.858;2022-09-09T00:07:57;3.20;;;1.60;;
23123;SDS011;11731;48.592;8.858;2022-09-09T00:10:31;3.87;;;1.53;;
23123;SDS011;11731;48.592;8.858;2022-09-09T00:13:01;5.03;;;1.90;;
23123;SDS011;11731;48.592;8.858;2022-09-09T00:15:37;1.80;;;1.53;;
23123;SDS011;11731;48.592;8.858;2022-09-09T00:18:13;2.10;;;1.23;;
23123;SDS011;11731;48.592;8.858;2022-09-09T00:20:47;6.57;;;1.40;;
23123;SDS011;11731;48.592;8.858;2022-09-09T00:23:24;3.03;;;1.60;;
23123;SDS011;11731;48.592;8.858;2022-09-09T00:25:56;1.67;;;1.30;;
23123;SDS011;11731;48.592;8.858;2022-09-09T00:28:31;2.73;;;1.37;;
23123;SDS011;11731;48.592;8.858;2022-09-09T00:31:07;2.87;;;1.27;;
23123;SDS011;11731;48.592;8.858;2022-09-09T00:33:38;2.50;;;1.27;;
23123;SDS011;11731;48.592;8.858;2022-09-09T00:36:09;2.63;;;1.17;;
23123;SDS011;11731;48.592;8.858;2022-09-09T00:38:41;2.63;;;1.20;;
23123;SDS011;11731;48.592;8.858;2022-09-09T00:41:13;2.77;;;1.47;;
23123;SDS011;11731;48.592;8.858;2022-09-09T00:43:50;2.70;;;1.37;;
23123;SDS011;11731;48.592;8.858;2022-09-09T00:46:36;4.70;;;1.40;;
23123;SDS011;11731;48.592;8.858;2022-09-09T00:49:20;1.53;;;1.20;;
23123;SDS011;11731;48.592;8.858;2022-09-09T00:51:59;4.87;;;1.50;;
23123;SDS011;11731;48.592;8.858;2022-09-09T00:54:38;4.43;;;1.40;;
23123;SDS011;11731;48.592;8.858;2022-09-09T00:57:21;1.33;;;1.23;;
23123;SDS011;11731;48.592;8.858;2022-09-09T00:59:56;1.63;;;1.23;;
23123;SDS011;11731;48.592;8.858;2022-09-09T01:02:46;2.33;;;1.47;;
23123;SDS011;11731;48.592;8.858;2022-09-09T01:05:20;2.03;;;1.50;;
23123;SDS011;11731;48.592;8.858;2022-09-09T01:07:53;4.50;;;1.60;;
23123;SDS011;11731;48.592;8.858;2022-09-09T01:10:22;2.87;;;1.50;;
23123;SDS011;11731;48.592;8.858;2022-09-09T01:12:56;2.80;;;1.40;;
23123;SDS011;11731;48.592;8.858;2022-09-09T01:15:29;4.27;;;1.60;;
23123;SDS011;11731;48.592;8.858;2022-09-09T01:18:00;2.93;;;1.30;;
23123;SDS011;11731;48.592;8.858;2022-09-09T01:20:31;2.57;;;1.20;;
23123;SDS011;11731;48.592;8.858;2022-09-09T01:26:11;3.87;;;1.40;;
23123;SDS011;11731;48.592;8.858;2022-09-09T01:28:44;3.53;;;1.40;;
23123;SDS011;11731;48.592;8.858;2022-09-09T01:31:14;3.67;;;1.57;;
23123;SDS011;11731;48.592;8.858;2022-09-09T01:33:44;2.60;;;1.23;;
23123;SDS011;11731;48.592;8.858;2022-09-09T01:36:12;5.00;;;1.40;;
23123;SDS011;11731;48.592;8.858;2022-09-09T01:38:43;4.30;;;1.53;;
23123;SDS011;11731;48.592;8.858;2022-09-09T01:41:11;4.80;;;1.33;;
23123;SDS011;11731;48.592;8.858;2022-09-09T01:43:38;2.57;;;1.57;;
23123;SDS011;11731;48.592;8.858;2022-09-09T01:46:05;1.93;;;1.20;;
23123;SDS011;11731;48.592;8.858;2022-09-09T01:48:32;2.13;;;1.10;;
23123;SDS011;11731;48.592;8.858;2022-09-09T01:50:59;4.20;;;1.40;;
23123;SDS011;11731;48.592;8.858;2022-09-09T01:53:26;2.07;;;1.30;;
23123;SDS011;11731;48.592;8.858;2022-09-09T01:55:56;3.40;;;1.37;;
23123;SDS011;11731;48.592;8.858;2022-09-09T01:58:37;2.50;;;1.43;;
23123;SDS011;11731;48.592;8.858;2022-09-09T02:01:15;3.03;;;1.40;;
23123;SDS011;11731;48.592;8.858;2022-09-09T02:03:52;2.80;;;1.50;;
23123;SDS011;11731;48.592;8.858;2022-09-09T02:06:25;3.87;;;1.80;;
23123;SDS011;11731;48.592;8.858;2022-09-09T02:08:56;3.03;;;1.50;;
23123;SDS011;11731;48.592;8.858;2022-09-09T02:11:26;3.17;;;1.37;;
23123;SDS011;11731;48.592;8.858;2022-09-09T02:13:56;5.90;;;1.33;;
23123;SDS011;11731;48.592;8.858;2022-09-09T02:16:26;2.60;;;1.50;;
23123;SDS011;11731;48.592;8.858;2022-09-09T02:18:57;5.27;;;1.90;;
23123;SDS011;11731;48.592;8.858;2022-09-09T02:21:30;3.10;;;1.50;;
23123;SDS011;11731;48.592;8.858;2022-09-09T02:24:00;3.33;;;2.00;;
23123;SDS011;11731;48.592;8.858;2022-09-09T02:26:30;2.13;;;1.57;;
23123;SDS011;11731;48.592;8.858;2022-09-09T02:29:02;2.53;;;1.50;;
23123;SDS011;11731;48.592;8.858;2022-09-09T02:31:33;2.27;;;1.40;;
23123;SDS011;11731;48.592;8.858;2022-09-09T02:34:03;5.23;;;1.30;;
23123;SDS011;11731;48.592;8.858;2022-09-09T02:36:31;4.17;;;1.63;;
23123;SDS011;11731;48.592;8.858;2022-09-09T02:39:01;3.83;;;1.43;;
23123;SDS011;11731;48.592;8.858;2022-09-09T02:41:30;3.43;;;1.97;;
23123;SDS011;11731;48.592;8.858;2022-09-09T02:43:59;3.47;;;1.70;;
23123;SDS011;11731;48.592;8.858;2022-09-09T02:46:35;4.63;;;1.80;;
23123;SDS011;11731;48.592;8.858;2022-09-09T02:49:14;2.43;;;1.50;;
23123;SDS011;11731;48.592;8.858;2022-09-09T02:51:51;3.33;;;1.80;;
23123;SDS011;11731;48.592;8.858;2022-09-09T02:54:22;3.23;;;1.87;;
23123;SDS011;11731;48.592;8.858;2022-09-09T02:56:55;2.37;;;1.50;;
23123;SDS011;11731;48.592;8.858;2022-09-09T02:59:29;2.47;;;1.50;;
23123;SDS011;11731;48.592;8.858;2022-09-09T03:01:56;4.53;;;1.70;;
23123;SDS011;11731;48.592;8.858;2022-09-09T03:04:23;3.10;;;1.43;;
23123;SDS011;11731;48.592;8.858;2022-09-09T03:06:50;4.80;;;1.50;;
23123;SDS011;11731;48.592;8.858;2022-09-09T03:09:17;4.10;;;2.73;;
23123;SDS011;11731;48.592;8.858;2022-09-09T03:11:44;2.57;;;1.67;;
23123;SDS011;11731;48.592;8.858;2022-09-09T03:14:11;4.53;;;1.47;;
23123;SDS011;11731;48.592;8.858;2022-09-09T03:16:39;2.90;;;1.60;;
23123;SDS011;11731;48.592;8.858;2022-09-09T03:19:07;2.73;;;2.00;;
23123;SDS011;11731;48.592;8.858;2022-09-09T03:21:34;3.43;;;1.60;;
23123;SDS011;11731;48.592;8.858;2022-09-09T03:24:01;3.03;;;1.53;;
23123;SDS011;11731;48.592;8.858;2022-09-09T03:26:29;2.73;;;1.70;;
23123;SDS011;11731;48.592;8.858;2022-09-09T03:28:56;2.23;;;1.63;;
23123;SDS011;11731;48.592;8.858;2022-09-09T03:31:25;1.90;;;1.60;;
23123;SDS011;11731;48.592;8.858;2022-09-09T03:33:56;3.47;;;1.80;;
23123;SDS011;11731;48.592;8.858;2022-09-09T03:36:24;2.57;;;1.57;;
23123;SDS011;11731;48.592;8.858;2022-09-09T03:38:51;4.10;;;1.57;;
23123;SDS011;11731;48.592;8.858;2022-09-09T03:41:19;3.67;;;1.63;;
23123;SDS011;11731;48.592;8.858;2022-09-09T03:43:47;4.13;;;1.77;;
23123;SDS011;11731;48.592;8.858;2022-09-09T03:46:13;7.43;;;2.10;;
23123;SDS011;11731;48.592;8.858;2022-09-09T03:48:40;8.60;;;4.37;;
23123;SDS011;11731;48.592;8.858;2022-09-09T03:51:08;54.67;;;24.97;;
23123;SDS011;11731;48.592;8.858;2022-09-09T03:53:36;52.20;;;23.90;;
23123;SDS011;11731;48.592;8.858;2022-09-09T03:56:03;21.53;;;10.47;;
23123;SDS011;11731;48.592;8.858;2022-09-09T03:58:32;3.17;;;2.03;;
23123;SDS011;11731;48.592;8.858;2022-09-09T04:00:59;4.17;;;1.80;;
23123;SDS011;11731;48.592;8.858;2022-09-09T04:03:28;5.13;;;1.80;;
23123;SDS011;11731;48.592;8.858;2022-09-09T04:05:55;5.17;;;1.90;;
23123;SDS011;11731;48.592;8.858;2022-09-09T04:08:24;3.10;;;2.70;;
23123;SDS011;11731;48.592;8.858;2022-09-09T04:10:52;4.27;;;1.60;;
23123;SDS011;11731;48.592;8.858;2022-09-09T04:13:22;6.63;;;1.93;;
23123;SDS011;11731;48.592;8.858;2022-09-09T04:15:50;4.17;;;1.47;;
23123;SDS011;11731;48.592;8.858;2022-09-09T04:18:18;2.37;;;1.60;;
23123;SDS011;11731;48.592;8.858;2022-09-09T04:20:46;2.10;;;1.63;;
23123;SDS011;11731;48.592;8.858;2022-09-09T04:23:13;3.53;;;1.50;;
23123;SDS011;11731;48.592;8.858;2022-09-09T04:25:44;2.43;;;1.40;;
23123;SDS011;11731;48.592;8.858;2022-09-09T04:28:12;5.40;;;1.70;;
23123;SDS011;11731;48.592;8.858;2022-09-09T04:30:39;5.10;;;1.83;;
23123;SDS011;11731;48.592;8.858;2022-09-09T04:33:06;6.33;;;1.87;;
23123;SDS011;11731;48.592;8.858;2022-09-09T04:35:33;1.97;;;1.47;;
23123;SDS011;11731;48.592;8.858;2022-09-09T04:38:00;2.47;;;1.60;;
23123;SDS011;11731;48.592;8.858;2022-09-09T04:40:28;4.80;;;1.83;;
23123;SDS011;11731;48.592;8.858;2022-09-09T04:42:57;7.13;;;1.97;;
23123;SDS011;11731;48.592;8.858;2022-09-09T04:45:24;2.23;;;1.70;;
23123;SDS011;11731;48.592;8.858;2022-09-09T04:47:51;2.27;;;1.50;;
23123;SDS011;11731;48.592;8.858;2022-09-09T04:50:18;3.37;;;1.80;;
23123;SDS011;11731;48.592;8.858;2022-09-09T04:52:45;1.50;;;1.30;;
23123;SDS011;11731;48.592;8.858;2022-09-09T04:55:12;3.37;;;1.83;;
23123;SDS011;11731;48.592;8.858;2022-09-09T04:57:38;2.07;;;1.60;;
23123;SDS011;11731;48.592;8.858;2022-09-09T05:00:07;5.63;;;1.73;;
23123;SDS011;11731;48.592;8.858;2022-09-09T05:02:36;3.30;;;1.60;;
23123;SDS011;11731;48.592;8.858;2022-09-09T05:05:04;4.77;;;1.77;;
23123;SDS011;11731;48.592;8.858;2022-09-09T05:07:31;2.73;;;1.70;;
23123;SDS011;11731;48.592;8.858;2022-09-09T05:09:58;2.10;;;1.57;;
23123;SDS011;11731;48.592;8.858;2022-09-09T05:12:25;1.90;;;1.70;;
23123;SDS011;11731;48.592;8.858;2022-09-09T05:14:52;2.60;;;1.87;;
23123;SDS011;11731;48.592;8.858;2022-09-09T05:17:20;3.40;;;1.57;;
23123;SDS011;11731;48.592;8.858;2022-09-09T05:19:47;5.63;;;1.77;;
23123;SDS011;11731;48.592;8.858;2022-09-09T05:22:17;4.10;;;1.70;;
23123;SDS011;11731;48.592;8.858;2022-09-09T05:24:45;6.67;;;2.00;;
23123;SDS011;11731;48.592;8.858;2022-09-09T05:27:12;3.97;;;1.93;;
23123;SDS011;11731;48.592;8.858;2022-09-09T05:29:39;7.47;;;2.00;;
23123;SDS011;11731;48.592;8.858;2022-09-09T05:32:08;3.63;;;1.67;;
23123;SDS011;11731;48.592;8.858;2022-09-09T05:34:38;3.10;;;1.60;;
23123;SDS011;11731;48.592;8.858;2022-09-09T05:37:05;4.87;;;1.73;;
23123;SDS011;11731;48.592;8.858;2022-09-09T05:39:32;5.53;;;1.90;;
23123;SDS011;11731;48.592;8.858;2022-09-09T05:42:01;4.33;;;1.70;;
23123;SDS011;11731;48.592;8.858;2022-09-09T05:44:29;5.93;;;1.73;;
23123;SDS011;11731;48.592;8.858;2022-09-09T05:46:57;4.37;;;1.70;;
23123;SDS011;11731;48.592;8.858;2022-09-09T05:49:24;3.40;;;1.63;;
23123;SDS011;11731;48.592;8.858;2022-09-09T05:51:52;3.47;;;1.77;;
23123;SDS011;11731;48.592;8.858;2022-09-09T05:54:19;5.07;;;1.90;;
23123;SDS011;11731;48.592;8.858;2022-09-09T05:56:46;3.43;;;1.40;;
23123;SDS011;11731;48.592;8.858;2022-09-09T05:59:15;5.13;;;1.60;;
23123;SDS011;11731;48.592;8.858;2022-09-09T06:01:43;5.27;;;1.87;;
23123;SDS011;11731;48.592;8.858;2022-09-09T06:04:10;4.00;;;1.33;;
23123;SDS011;11731;48.592;8.858;2022-09-09T06:06:37;6.40;;;1.50;;
23123;SDS011;11731;48.592;8.858;2022-09-09T06:09:06;5.30;;;2.60;;
23123;SDS011;11731;48.592;8.858;2022-09-09T06:11:36;5.73;;;2.10;;
23123;SDS011;11731;48.592;8.858;2022-09-09T06:14:04;3.90;;;1.80;;
23123;SDS011;11731;48.592;8.858;2022-09-09T06:16:32;5.57;;;1.80;;
23123;SDS011;11731;48.592;8.858;2022-09-09T06:18:59;3.03;;;1.63;;
23123;SDS011;11731;48.592;8.858;2022-09-09T06:21:28;5.67;;;1.87;;
23123;SDS011;11731;48.592;8.858;2022-09-09T06:23:56;3.97;;;1.60;;
23123;SDS011;11731;48.592;8.858;2022-09-09T06:26:25;7.03;;;1.90;;
23123;SDS011;11731;48.592;8.858;2022-09-09T06:28:53;9.23;;;2.10;;
23123;SDS011;11731;48.592;8.858;2022-09-09T06:31:23;7.33;;;1.83;;
23123;SDS011;11731;48.592;8.858;2022-09-09T06:33:52;2.93;;;1.70;;
23123;SDS011;11731;48.592;8.858;2022-09-09T06:36:20;9.53;;;1.83;;
23123;SDS011;11731;48.592;8.858;2022-09-09T06:38:49;2.90;;;1.50;;
23123;SDS011;11731;48.592;8.858;2022-09-09T06:41:16;5.53;;;1.83;;
23123;SDS011;11731;48.592;8.858;2022-09-09T06:43:46;6.63;;;1.97;;
23123;SDS011;11731;48.592;8.858;2022-09-09T06:46:13;6.30;;;1.77;;
23123;SDS011;11731;48.592;8.858;2022-09-09T06:48:42;3.90;;;1.77;;
23123;SDS011;11731;48.592;8.858;2022-09-09T06:51:10;3.77;;;1.97;;
23123;SDS011;11731;48.592;8.858;2022-09-09T06:53:38;6.10;;;1.60;;
23123;SDS011;11731;48.592;8.858;2022-09-09T06:56:17;3.67;;;1.63;;
23123;SDS011;11731;48.592;8.858;2022-09-09T06:58:47;5.53;;;1.77;;
23123;SDS011;11731;48.592;8.858;2022-09-09T07:01:14;4.63;;;1.70;;
23123;SDS011;11731;48.592;8.858;2022-09-09T07:03:44;3.70;;;1.40;;
23123;SDS011;11731;48.592;8.858;2022-09-09T07:06:13;6.27;;;1.60;;
23123;SDS011;11731;48.592;8.858;2022-09-09T07:08:43;3.17;;;1.57;;
23123;SDS011;11731;48.592;8.858;2022-09-09T07:11:09;3.73;;;1.80;;
23123;SDS011;11731;48.592;8.858;2022-09-09T07:13:37;7.50;;;1.70;;
23123;SDS011;11731;48.592;8.858;2022-09-09T07:16:06;3.37;;;1.50;;
23123;SDS011;11731;48.592;8.858;2022-09-09T07:18:33;3.77;;;1.90;;
23123;SDS011;11731;48.592;8.858;2022-09-09T07:21:01;6.47;;;2.20;;
23123;SDS011;11731;48.592;8.858;2022-09-09T07:23:29;3.03;;;1.80;;
23123;SDS011;11731;48.592;8.858;2022-09-09T07:25:56;4.70;;;1.60;;
23123;SDS011;11731;48.592;8.858;2022-09-09T07:28:24;7.50;;;1.80;;
23123;SDS011;11731;48.592;8.858;2022-09-09T07:30:54;1.73;;;1.60;;
23123;SDS011;11731;48.592;8.858;2022-09-09T07:33:23;2.63;;;1.60;;
23123;SDS011;11731;48.592;8.858;2022-09-09T07:35:51;4.50;;;1.73;;
23123;SDS011;11731;48.592;8.858;2022-09-09T07:38:19;3.03;;;1.60;;
23123;SDS011;11731;48.592;8.858;2022-09-09T07:40:47;2.70;;;1.40;;
23123;SDS011;11731;48.592;8.858;2022-09-09T07:43:13;2.80;;;1.50;;
23123;SDS011;11731;48.592;8.858;2022-09-09T07:45:44;2.73;;;1.70;;
23123;SDS011;11731;48.592;8.858;2022-09-09T07:48:10;3.73;;;1.70;;
23123;SDS011;11731;48.592;8.858;2022-09-09T07:50:39;3.03;;;1.50;;
23123;SDS011;11731;48.592;8.858;2022-09-09T07:53:05;6.03;;;1.50;;
23123;SDS011;11731;48.592;8.858;2022-09-09T07:55:32;5.10;;;1.80;;
23123;SDS011;11731;48.592;8.858;2022-09-09T07:57:59;2.40;;;1.50;;
23123;SDS011;11731;48.592;8.858;2022-09-09T08:00:26;1.90;;;1.50;;
23123;SDS011;11731;48.592;8.858;2022-09-09T08:02:53;2.77;;;1.37;;
23123;SDS011;11731;48.592;8.858;2022-09-09T08:05:20;2.67;;;1.60;;
23123;SDS011;11731;48.592;8.858;2022-09-09T08:07:49;7.57;;;1.57;;
23123;SDS011;11731;48.592;8.858;2022-09-09T08:10:16;2.60;;;1.40;;
23123;SDS011;11731;48.592;8.858;2022-09-09T08:12:43;5.60;;;1.40;;
23123;SDS011;11731;48.592;8.858;2022-09-09T08:15:10;4.43;;;1.10;;
23123;SDS011;11731;48.592;8.858;2022-09-09T08:17:37;6.90;;;1.37;;
23123;SDS011;11731;48.592;8.858;2022-09-09T08:20:04;4.57;;;1.23;;
23123;SDS011;11731;48.592;8.858;2022-09-09T08:22:32;3.33;;;1.50;;
23123;SDS011;11731;48.592;8.858;2022-09-09T08:25:00;4.50;;;1.20;;
23123;SDS011;11731;48.592;8.858;2022-09-09T08:27:30;2.90;;;1.20;;
23123;SDS011;11731;48.592;8.858;2022-09-09T08:29:57;3.20;;;1.17;;
23123;SDS011;11731;48.592;8.858;2022-09-09T08:32:24;1.83;;;1.40;;
23123;SDS011;11731;48.592;8.858;2022-09-09T08:34:51;2.37;;;1.00;;
23123;SDS011;11731;48.592;8.858;2022-09-09T08:37:18;3.27;;;1.43;;
23123;SDS011;11731;48.592;8.858;2022-09-09T08:39:45;4.47;;;1.30;;
23123;SDS011;11731;48.592;8.858;2022-09-09T08:42:26;4.63;;;1.93;;
23123;SDS011;11731;48.592;8.858;2022-09-09T08:48:04;5.20;;;1.43;;
23123;SDS011;11731;48.592;8.858;2022-09-09T08:50:38;3.17;;;1.50;;
23123;SDS011;11731;48.592;8.858;2022-09-09T08:53:09;5.60;;;1.70;;
23123;SDS011;11731;48.592;8.858;2022-09-09T08:55:42;5.23;;;1.50;;
23123;SDS011;11731;48.592;8.858;2022-09-09T08:58:15;6.33;;;1.90;;
23123;SDS011;11731;48.592;8.858;2022-09-09T09:00:47;2.83;;;1.67;;
23123;SDS011;11731;48.592;8.858;2022-09-09T09:03:28;5.60;;;2.10;;
23123;SDS011;11731;48.592;8.858;2022-09-09T09:06:04;3.33;;;1.80;;
23123;SDS011;11731;48.592;8.858;2022-09-09T09:08:42;3.23;;;1.70;;
23123;SDS011;11731;48.592;8.858;2022-09-09T09:11:14;4.30;;;1.60;;
23123;SDS011;11731;48.592;8.858;2022-09-09T09:13:43;5.07;;;1.50;;
23123;SDS011;11731;48.592;8.858;2022-09-09T09:16:17;4.23;;;1.60;;
23123;SDS011;11731;48.592;8.858;2022-09-09T09:18:49;6.03;;;1.77;;
23123;SDS011;11731;48.592;8.858;2022-09-09T09:21:18;5.10;;;1.70;;
23123;SDS011;11731;48.592;8.858;2022-09-09T09:23:53;3.27;;;1.50;;
23123;SDS011;11731;48.592;8.858;2022-09-09T09:26:23;3.87;;;2.47;;
23123;SDS011;11731;48.592;8.858;2022-09-09T09:28:54;4.90;;;1.60;;
23123;SDS011;11731;48.592;8.858;2022-09-09T09:31:23;3.03;;;1.60;;
23123;SDS011;11731;48.592;8.858;2022-09-09T09:33:52;6.23;;;2.00;;
23123;SDS011;11731;48.592;8.858;2022-09-09T09:36:21;5.67;;;1.60;;
23123;SDS011;11731;48.592;8.858;2022-09-09T09:38:52;5.97;;;1.53;;
23123;SDS011;11731;48.592;8.858;2022-09-09T09:41:31;1.67;;;1.40;;
23123;SDS011;11731;48.592;8.858;2022-09-09T09:44:02;4.97;;;1.70;;
23123;SDS011;11731;48.592;8.858;2022-09-09T09:46:29;4.87;;;1.60;;
23123;SDS011;11731;48.592;8.858;2022-09-09T09:48:57;3.60;;;1.53;;
23123;SDS011;11731;48.592;8.858;2022-09-09T09:51:25;5.40;;;1.53;;
23123;SDS011;11731;48.592;8.858;2022-09-09T09:53:54;4.47;;;1.50;;
23123;SDS011;11731;48.592;8.858;2022-09-09T09:56:30;5.27;;;1.67;;
23123;SDS011;11731;48.592;8.858;2022-09-09T09:58:58;2.87;;;1.53;;
23123;SDS011;11731;48.592;8.858;2022-09-09T10:01:27;8.10;;;1.50;;
23123;SDS011;11731;48.592;8.858;2022-09-09T10:03:57;5.67;;;2.33;;
23123;SDS011;11731;48.592;8.858;2022-09-09T10:06:30;1.43;;;1.10;;
23123;SDS011;11731;48.592;8.858;2022-09-09T10:08:58;4.50;;;1.50;;
23123;SDS011;11731;48.592;8.858;2022-09-09T10:11:29;4.43;;;1.43;;
23123;SDS011;11731;48.592;8.858;2022-09-09T10:14:12;4.10;;;1.30;;
23123;SDS011;11731;48.592;8.858;2022-09-09T10:16:49;5.07;;;1.37;;
23123;SDS011;11731;48.592;8.858;2022-09-09T10:19:29;7.00;;;1.30;;
23123;SDS011;11731;48.592;8.858;2022-09-09T10:22:06;4.27;;;1.50;;
23123;SDS011;11731;48.592;8.858;2022-09-09T10:27:43;4.97;;;1.50;;
23123;SDS011;11731;48.592;8.858;2022-09-09T10:30:19;2.20;;;1.17;;
23123;SDS011;11731;48.592;8.858;2022-09-09T10:32:52;5.80;;;1.13;;
23123;SDS011;11731;48.592;8.858;2022-09-09T10:35:29;3.70;;;1.27;;
23123;SDS011;11731;48.592;8.858;2022-09-09T10:41:01;2.17;;;1.10;;
23123;SDS011;11731;48.592;8.858;2022-09-09T10:43:49;3.20;;;1.20;;
23123;SDS011;11731;48.592;8.858;2022-09-09T10:46:33;2.53;;;0.90;;
23123;SDS011;11731;48.592;8.858;2022-09-09T10:49:13;4.20;;;1.00;;
23123;SDS011;11731;48.592;8.858;2022-09-09T10:51:49;3.47;;;1.10;;
23123;SDS011;11731;48.592;8.858;2022-09-09T10:54:26;3.83;;;1.17;;
23123;SDS011;11731;48.592;8.858;2022-09-09T10:57:04;1.43;;;1.00;;
23123;SDS011;11731;48.592;8.858;2022-09-09T10:59:40;4.50;;;1.10;;
23123;SDS011;11731;48.592;8.858;2022-09-09T11:02:12;1.83;;;0.90;;
23123;SDS011;11731;48.592;8.858;2022-09-09T11:04:48;6.83;;;2.20;;
23123;SDS011;11731;48.592;8.858;2022-09-09T11:07:20;2.13;;;0.90;;
23123;SDS011;11731;48.592;8.858;2022-09-09T11:09:52;0.77;;;0.70;;
23123;SDS011;11731;48.592;8.858;2022-09-09T11:12:24;3.37;;;1.00;;
23123;SDS011;11731;48.592;8.858;2022-09-09T11:14:54;3.00;;;0.80;;
23123;SDS011;11731;48.592;8.858;2022-09-09T11:17:30;1.20;;;0.70;;
23123;SDS011;11731;48.592;8.858;2022-09-09T11:20:06;1.17;;;0.77;;
23123;SDS011;11731;48.592;8.858;2022-09-09T11:22:37;1.47;;;1.07;;
23123;SDS011;11731;48.592;8.858;2022-09-09T11:25:10;1.53;;;0.80;;
23123;SDS011;11731;48.592;8.858;2022-09-09T11:27:43;1.03;;;0.77;;
23123;SDS011;11731;48.592;8.858;2022-09-09T11:30:19;1.93;;;0.70;;
23123;SDS011;11731;48.592;8.858;2022-09-09T11:33:03;0.90;;;0.60;;
23123;SDS011;11731;48.592;8.858;2022-09-09T11:35:58;1.33;;;0.60;;
23123;SDS011;11731;48.592;8.858;2022-09-09T11:38:40;1.20;;;0.70;;
23123;SDS011;11731;48.592;8.858;2022-09-09T11:41:11;0.60;;;0.60;;
23123;SDS011;11731;48.592;8.858;2022-09-09T11:43:41;0.70;;;0.70;;
23123;SDS011;11731;48.592;8.858;2022-09-09T11:46:09;1.50;;;0.57;;
23123;SDS011;11731;48.592;8.858;2022-09-09T11:48:39;3.10;;;0.70;;
23123;SDS011;11731;48.592;8.858;2022-09-09T11:51:11;1.90;;;0.90;;
23123;SDS011;11731;48.592;8.858;2022-09-09T11:53:48;0.70;;;0.70;;
23123;SDS011;11731;48.592;8.858;2022-09-09T11:56:27;2.97;;;0.50;;
23123;SDS011;11731;48.592;8.858;2022-09-09T11:58:59;0.90;;;0.50;;
23123;SDS011;11731;48.592;8.858;2022-09-09T12:01:35;0.50;;;0.50;;
23123;SDS011;11731;48.592;8.858;2022-09-09T12:04:10;0.93;;;0.60;;
23123;SDS011;11731;48.592;8.858;2022-09-09T12:06:58;0.73;;;0.73;;
23123;SDS011;11731;48.592;8.858;2022-09-09T12:09:32;0.97;;;0.70;;
23123;SDS011;11731;48.592;8.858;2022-09-09T12:12:07;2.27;;;0.77;;
23123;SDS011;11731;48.592;8.858;2022-09-09T12:14:54;0.83;;;0.83;;
23123;SDS011;11731;48.592;8.858;2022-09-09T12:17:24;2.80;;;0.80;;
23123;SDS011;11731;48.592;8.858;2022-09-09T12:19:59;0.90;;;0.80;;
23123;SDS011;11731;48.592;8.858;2022-09-09T12:22:35;0.73;;;0.73;;
23123;SDS011;11731;48.592;8.858;2022-09-09T12:25:12;2.03;;;1.00;;
23123;SDS011;11731;48.592;8.858;2022-09-09T12:27:49;1.83;;;0.90;;
23123;SDS011;11731;48.592;8.858;2022-09-09T12:30:28;1.40;;;0.80;;
23123;SDS011;11731;48.592;8.858;2022-09-09T12:33:00;1.30;;;0.70;;
23123;SDS011;11731;48.592;8.858;2022-09-09T12:35:28;4.23;;;1.13;;
23123;SDS011;11731;48.592;8.858;2022-09-09T12:37:57;1.70;;;0.90;;
23123;SDS011;11731;48.592;8.858;2022-09-09T12:40:27;5.10;;;1.20;;
23123;SDS011;11731;48.592;8.858;2022-09-09T12:42:56;1.67;;;0.90;;
23123;SDS011;11731;48.592;8.858;2022-09-09T12:45:27;6.00;;;1.00;;
23123;SDS011;11731;48.592;8.858;2022-09-09T12:47:57;5.83;;;1.53;;
23123;SDS011;11731;48.592;8.858;2022-09-09T12:50:27;2.30;;;1.03;;
23123;SDS011;11731;48.592;8.858;2022-09-09T12:52:58;1.63;;;1.00;;
23123;SDS011;11731;48.592;8.858;2022-09-09T12:55:28;1.97;;;0.90;;
23123;SDS011;11731;48.592;8.858;2022-09-09T12:57:58;3.07;;;0.97;;
23123;SDS011;11731;48.592;8.858;2022-09-09T13:00:29;2.47;;;0.90;;
23123;SDS011;11731;48.592;8.858;2022-09-09T13:02:57;1.07;;;0.70;;
23123;SDS011;11731;48.592;8.858;2022-09-09T13:05:26;2.07;;;1.00;;
23123;SDS011;11731;48.592;8.858;2022-09-09T13:08:02;3.43;;;0.90;;
23123;SDS011;11731;48.592;8.858;2022-09-09T13:10:31;3.73;;;1.07;;
23123;SDS011;11731;48.592;8.858;2022-09-09T13:12:59;3.70;;;1.07;;
23123;SDS011;11731;48.592;8.858;2022-09-09T13:15:28;2.00;;;0.97;;
23123;SDS011;11731;48.592;8.858;2022-09-09T13:17:56;1.10;;;0.73;;
23123;SDS011;11731;48.592;8.858;2022-09-09T13:20:26;2.80;;;0.87;;
23123;SDS011;11731;48.592;8.858;2022-09-09T13:22:54;3.20;;;0.90;;
23123;SDS011;11731;48.592;8.858;2022-09-09T13:25:25;3.30;;;0.90;;
23123;SDS011;11731;48.592;8.858;2022-09-09T13:28:00;5.43;;;0.83;;
23123;SDS011;11731;48.592;8.858;2022-09-09T13:30:29;2.13;;;0.90;;
23123;SDS011;11731;48.592;8.858;2022-09-09T13:35:50;1.70;;;0.70;;
23123;SDS011;11731;48.592;8.858;2022-09-09T13:38:20;0.83;;;0.70;;
23123;SDS011;11731;48.592;8.858;2022-09-09T13:40:55;1.30;;;0.80;;
23123;SDS011;11731;48.592;8.858;2022-09-09T13:43:24;3.70;;;0.80;;
23123;SDS011;11731;48.592;8.858;2022-09-09T13:45:52;3.20;;;2.03;;
23123;SDS011;11731;48.592;8.858;2022-09-09T13:48:21;1.90;;;0.77;;
23123;SDS011;11731;48.592;8.858;2022-09-09T13:50:53;1.83;;;0.60;;
23123;SDS011;11731;48.592;8.858;2022-09-09T13:53:21;0.97;;;0.50;;
23123;SDS011;11731;48.592;8.858;2022-09-09T13:55:48;1.63;;;0.73;;
23123;SDS011;11731;48.592;8.858;2022-09-09T13:58:17;1.57;;;0.50;;
23123;SDS011;11731;48.592;8.858;2022-09-09T14:00:45;1.50;;;0.67;;
23123;SDS011;11731;48.592;8.858;2022-09-09T14:03:12;1.67;;;0.60;;
23123;SDS011;11731;48.592;8.858;2022-09-09T14:05:39;1.20;;;0.60;;
23123;SDS011;11731;48.592;8.858;2022-09-09T14:08:07;0.70;;;0.60;;
23123;SDS011;11731;48.592;8.858;2022-09-09T14:10:42;3.83;;;0.70;;
23123;SDS011;11731;48.592;8.858;2022-09-09T14:13:09;1.27;;;0.80;;
23123;SDS011;11731;48.592;8.858;2022-09-09T14:15:38;1.90;;;0.50;;
23123;SDS011;11731;48.592;8.858;2022-09-09T14:18:05;3.90;;;0.90;;
23123;SDS011;11731;48.592;8.858;2022-09-09T14:20:32;2.30;;;0.80;;
23123;SDS011;11731;48.592;8.858;2022-09-09T14:22:59;2.27;;;0.87;;
23123;SDS011;11731;48.592;8.858;2022-09-09T14:25:26;2.00;;;1.00;;
23123;SDS011;11731;48.592;8.858;2022-09-09T14:27:53;3.87;;;0.97;;
23123;SDS011;11731;48.592;8.858;2022-09-09T14:30:21;2.83;;;0.80;;
23123;SDS011;11731;48.592;8.858;2022-09-09T14:32:49;2.23;;;0.83;;
23123;SDS011;11731;48.592;8.858;2022-09-09T14:35:16;3.03;;;1.07;;
23123;SDS011;11731;48.592;8.858;2022-09-09T14:37:43;2.10;;;0.90;;
23123;SDS011;11731;48.592;8.858;2022-09-09T14:40:10;3.20;;;0.80;;
23123;SDS011;11731;48.592;8.858;2022-09-09T14:42:37;2.73;;;0.80;;
23123;SDS011;11731;48.592;8.858;2022-09-09T14:45:04;1.13;;;0.80;;
23123;SDS011;11731;48.592;8.858;2022-09-09T14:47:32;3.23;;;1.13;;
23123;SDS011;11731;48.592;8.858;2022-09-09T14:50:00;3.70;;;1.00;;
23123;SDS011;11731;48.592;8.858;2022-09-09T14:52:29;4.00;;;1.00;;
23123;SDS011;11731;48.592;8.858;2022-09-09T14:54:56;1.00;;;0.80;;
23123;SDS011;11731;48.592;8.858;2022-09-09T14:57:23;5.93;;;1.03;;
23123;SDS011;11731;48.592;8.858;2022-09-09T14:59:50;2.43;;;0.90;;
23123;SDS011;11731;48.592;8.858;2022-09-09T15:02:18;1.23;;;0.80;;
23123;SDS011;11731;48.592;8.858;2022-09-09T15:04:45;7.50;;;0.80;;
23123;SDS011;11731;48.592;8.858;2022-09-09T15:07:13;1.67;;;0.80;;
23123;SDS011;11731;48.592;8.858;2022-09-09T15:09:40;2.47;;;0.80;;
23123;SDS011;11731;48.592;8.858;2022-09-09T15:12:07;4.77;;;0.80;;
23123;SDS011;11731;48.592;8.858;2022-09-09T15:14:34;2.13;;;0.70;;
23123;SDS011;11731;48.592;8.858;2022-09-09T15:17:01;1.40;;;0.83;;
23123;SDS011;11731;48.592;8.858;2022-09-09T15:19:28;2.63;;;0.80;;
23123;SDS011;11731;48.592;8.858;2022-09-09T15:21:55;1.17;;;0.70;;